createdAt,value
2023-03-19T00:00:35.514Z,53.33
2023-03-19T00:05:37.117Z,53.45
2023-03-19T00:10:39.278Z,53.49
2023-03-19T00:15:41.594Z,53.71
2023-03-19T00:20:43.607Z,53.99
2023-03-19T00:25:45.189Z,53.85
2023-03-19T00:30:47.343Z,54.63
2023-03-19T00:35:48.960Z,54.62
2023-03-19T00:40:50.549Z,54.44
2023-03-19T00:45:52.145Z,54.43
2023-03-19T00:50:53.717Z,54.60
2023-03-19T00:55:55.252Z,55.25
2023-03-19T01:00:57.354Z,55.03
2023-03-19T01:05:59.329Z,55.56
2023-03-19T01:11:15.441Z,55.67
2023-03-19T01:16:17.091Z,55.79
2023-03-19T01:21:18.666Z,56.29
2023-03-19T01:26:20.191Z,56.31
2023-03-19T01:31:22.165Z,56.67
2023-03-19T01:36:23.858Z,56.32
2023-03-19T01:41:26.423Z,56.47
2023-03-19T01:46:34.471Z,56.71
2023-03-19T01:51:41.590Z,56.75
2023-03-19T01:56:47.132Z,56.57
2023-03-19T02:02:16.532Z,56.55
2023-03-19T02:07:18.614Z,57.46
2023-03-19T02:12:20.137Z,56.99
2023-03-19T02:17:22.110Z,57.30
2023-03-19T02:22:27.542Z,57.42
2023-03-19T02:27:29.090Z,57.98
2023-03-19T02:32:30.628Z,57.63
2023-03-19T02:37:33.784Z,58.11
2023-03-19T02:42:35.674Z,58.57
2023-03-19T02:47:37.233Z,57.99
2023-03-19T02:52:39.317Z,58.21
2023-03-19T02:57:40.913Z,58.92
2023-03-19T03:02:42.639Z,59.23
2023-03-19T03:07:45.002Z,59.03
2023-03-19T03:12:46.602Z,59.14
2023-03-19T03:17:48.161Z,59.48
2023-03-19T03:22:49.760Z,59.93
2023-03-19T03:27:52.076Z,59.52
2023-03-19T03:32:53.685Z,59.55
2023-03-19T03:37:55.474Z,59.86
2023-03-19T03:42:57.344Z,59.84
2023-03-19T03:47:58.872Z,60.19
2023-03-19T03:53:00.399Z,59.50
2023-03-19T03:58:01.963Z,60.32
2023-03-19T04:03:03.821Z,60.23
2023-03-19T04:08:07.134Z,59.77
2023-03-19T04:13:12.575Z,60.26
2023-03-19T04:18:14.058Z,60.47
2023-03-19T04:23:15.649Z,60.82
2023-03-19T04:28:17.556Z,60.94
2023-03-19T04:33:19.315Z,60.85
2023-03-19T04:38:21.166Z,60.66
2023-03-19T04:43:24.402Z,61.00
2023-03-19T04:48:26.590Z,60.92
2023-03-19T04:53:28.353Z,61.57
2023-03-19T04:58:29.884Z,61.47
2023-03-19T05:03:31.782Z,61.24
2023-03-19T05:08:33.938Z,61.20
2023-03-19T05:13:35.884Z,62.00
2023-03-19T05:18:40.703Z,62.52
2023-03-19T05:23:42.969Z,61.77
2023-03-19T05:28:44.442Z,61.47
2023-03-19T05:33:45.930Z,61.58
2023-03-19T05:38:47.478Z,61.77
2023-03-19T05:43:48.996Z,61.58
2023-03-19T05:48:51.635Z,61.69
2023-03-19T05:53:53.160Z,61.40
2023-03-19T05:58:54.804Z,61.73
2023-03-19T06:03:56.326Z,61.30
2023-03-19T06:08:57.966Z,61.14
2023-03-19T06:13:59.441Z,61.13
2023-03-19T06:19:01.247Z,61.23
2023-03-19T06:24:02.887Z,61.32
2023-03-19T06:29:04.462Z,60.67
2023-03-19T06:34:06.044Z,60.33
2023-03-19T06:39:07.722Z,60.04
2023-03-19T06:44:09.303Z,59.72
2023-03-19T06:49:11.462Z,59.55
2023-03-19T06:54:12.938Z,59.11
2023-03-19T06:59:14.808Z,58.80
2023-03-19T07:04:16.852Z,58.55
2023-03-19T07:09:18.409Z,58.10
2023-03-19T07:14:20.000Z,57.14
2023-03-19T07:19:21.680Z,56.63
2023-03-19T07:24:23.252Z,56.24
2023-03-19T07:29:24.740Z,55.95
2023-03-19T07:34:26.516Z,55.44
2023-03-19T07:39:28.036Z,55.06
2023-03-19T07:44:29.493Z,54.29
2023-03-19T07:49:31.449Z,54.72
2023-03-19T07:54:33.178Z,54.39
2023-03-19T07:59:34.745Z,53.95
2023-03-19T08:04:37.418Z,54.17
2023-03-19T08:09:40.088Z,53.88
2023-03-19T08:14:41.645Z,53.23
2023-03-19T08:19:43.511Z,53.17
2023-03-19T08:24:45.159Z,52.34
2023-03-19T08:29:47.118Z,51.08
2023-03-19T08:34:49.762Z,51.39
2023-03-19T08:39:52.291Z,50.62
2023-03-19T08:44:53.852Z,49.77
2023-03-19T08:49:55.916Z,49.95
2023-03-19T08:54:57.445Z,50.09
2023-03-19T08:59:59.269Z,49.82
2023-03-19T09:05:00.947Z,48.73
2023-03-19T09:10:02.592Z,48.54
2023-03-19T09:15:04.722Z,48.11
2023-03-19T09:20:07.636Z,47.46
2023-03-19T09:25:09.590Z,47.63
2023-03-19T09:30:18.530Z,47.28
2023-03-19T09:35:20.585Z,46.36
2023-03-19T09:40:50.678Z,46.06
2023-03-19T09:45:52.431Z,45.12
2023-03-19T09:50:54.788Z,46.36
2023-03-19T09:55:59.520Z,46.03
2023-03-19T10:01:02.117Z,44.79
2023-03-19T10:06:09.606Z,44.83
2023-03-19T10:11:29.871Z,44.74
2023-03-19T10:16:31.828Z,43.81
2023-03-19T10:21:50.793Z,44.26
2023-03-19T10:27:00.419Z,43.91
2023-03-19T10:32:21.198Z,43.75
2023-03-19T10:37:26.204Z,43.74
2023-03-19T10:42:55.898Z,44.10
2023-03-19T10:47:59.109Z,42.81
2023-03-19T10:53:04.120Z,42.96
2023-03-19T10:58:16.258Z,43.25
2023-03-19T11:03:33.959Z,43.19
2023-03-19T11:08:37.824Z,44.03
2023-03-19T11:13:39.411Z,43.99
2023-03-19T11:18:41.257Z,43.60
2023-03-19T11:23:43.206Z,42.38
2023-03-19T11:28:44.787Z,41.87
2023-03-19T11:34:14.300Z,41.24
2023-03-19T11:39:30.431Z,41.75
2023-03-19T11:44:58.132Z,42.21
2023-03-19T11:50:17.990Z,41.83
2023-03-19T11:55:36.183Z,41.99
2023-03-19T12:00:41.357Z,41.07
2023-03-19T12:05:58.163Z,41.17
2023-03-19T12:11:18.655Z,39.78
2023-03-19T12:16:45.757Z,40.55
2023-03-19T12:21:59.984Z,39.98
2023-03-19T12:27:28.190Z,40.59
2023-03-19T12:32:54.392Z,40.33
2023-03-19T12:38:03.132Z,40.13
2023-03-19T12:43:19.679Z,40.95
2023-03-19T12:48:51.458Z,40.21
2023-03-19T12:54:01.417Z,39.73
2023-03-19T12:59:14.394Z,39.61
2023-03-19T13:04:31.032Z,39.91
2023-03-19T13:09:57.818Z,39.65
2023-03-19T13:15:24.281Z,39.71
2023-03-19T13:20:56.717Z,39.95
2023-03-19T13:26:01.417Z,39.82
2023-03-19T13:31:08.813Z,38.47
2023-03-19T13:36:15.243Z,37.59
2023-03-19T13:41:35.420Z,37.25
2023-03-19T13:46:40.093Z,37.91
2023-03-19T13:51:41.724Z,37.97
2023-03-19T13:57:01.032Z,38.34
2023-03-19T14:02:25.142Z,38.31
2023-03-19T14:07:30.489Z,38.25
2023-03-19T14:12:36.371Z,38.43
2023-03-19T14:18:02.454Z,37.90
2023-03-19T14:23:11.332Z,38.68
2023-03-19T14:28:19.623Z,37.35
2023-03-19T14:33:35.714Z,38.09
2023-03-19T14:38:44.142Z,37.35
2023-03-19T14:43:45.599Z,37.38
2023-03-19T14:48:58.415Z,37.52
2023-03-19T14:54:21.042Z,37.84
2023-03-19T14:59:23.167Z,38.03
2023-03-19T15:04:27.187Z,38.77
2023-03-19T15:09:32.392Z,37.71
2023-03-19T15:15:06.064Z,37.94
2023-03-19T15:20:21.409Z,38.28
2023-03-19T15:25:23.937Z,38.74
2023-03-19T15:30:50.439Z,39.36
2023-03-19T15:36:03.185Z,39.09
2023-03-19T15:41:07.812Z,39.27
2023-03-19T15:46:16.305Z,39.97
2023-03-19T15:51:21.178Z,39.99
2023-03-19T15:56:24.335Z,40.47
2023-03-19T16:01:27.396Z,40.86
2023-03-19T16:06:39.622Z,41.13
2023-03-19T16:11:43.648Z,41.49
2023-03-19T16:16:47.473Z,41.72
2023-03-19T16:21:48.999Z,42.27
2023-03-19T16:26:52.010Z,42.63
2023-03-19T16:31:59.888Z,42.93
2023-03-19T16:37:01.744Z,44.07
2023-03-19T16:42:36.585Z,44.36
2023-03-19T16:47:38.166Z,45.06
2023-03-19T16:52:40.929Z,45.68
2023-03-19T16:57:42.570Z,46.22
2023-03-19T17:02:44.057Z,46.20
2023-03-19T17:07:45.585Z,47.63
2023-03-19T17:12:52.248Z,47.95
2023-03-19T17:17:54.715Z,48.24
2023-03-19T17:22:56.253Z,47.51
2023-03-19T17:27:57.855Z,47.65
2023-03-19T17:32:59.912Z,48.18
2023-03-19T17:38:01.714Z,48.26
2023-03-19T17:43:08.235Z,47.80
2023-03-19T17:48:25.504Z,48.01
2023-03-19T17:53:27.262Z,47.74
2023-03-19T17:58:28.936Z,47.98
2023-03-19T18:03:31.993Z,47.87
2023-03-19T18:08:34.249Z,47.82
2023-03-19T18:13:36.495Z,47.97
2023-03-19T18:18:38.037Z,47.94
2023-03-19T18:23:39.695Z,48.05
2023-03-19T18:28:41.246Z,48.31
2023-03-19T18:33:50.297Z,48.38
2023-03-19T18:38:55.068Z,48.19
2023-03-19T18:43:56.809Z,48.43
2023-03-19T18:49:07.158Z,48.46
2023-03-19T18:54:11.096Z,48.80
2023-03-19T18:59:33.115Z,49.15
2023-03-19T19:04:34.770Z,49.57
2023-03-19T19:09:36.393Z,49.56
2023-03-19T19:14:38.010Z,50.02
2023-03-19T19:19:40.830Z,50.32
2023-03-19T19:24:45.308Z,50.14
2023-03-19T19:29:48.781Z,50.48
2023-03-19T19:34:51.939Z,51.33
2023-03-19T19:39:53.543Z,51.60
2023-03-19T19:44:59.328Z,51.31
2023-03-19T19:50:00.881Z,51.29
2023-03-19T19:55:02.443Z,51.48
2023-03-19T20:00:04.746Z,51.35
2023-03-19T20:05:07.377Z,50.89
2023-03-19T20:10:10.193Z,51.02
2023-03-19T20:15:17.478Z,51.02
2023-03-19T20:20:28.264Z,51.22
2023-03-19T20:25:34.413Z,51.12
2023-03-19T20:30:39.314Z,51.14
2023-03-19T20:35:41.151Z,51.15
2023-03-19T20:40:53.061Z,51.10
2023-03-19T20:45:56.994Z,51.09
2023-03-19T20:51:01.438Z,51.37
2023-03-19T20:56:04.882Z,51.37
2023-03-19T21:01:06.910Z,51.40
2023-03-19T21:06:21.613Z,51.50
2023-03-19T21:11:33.690Z,51.51
2023-03-19T21:16:36.458Z,51.54
2023-03-19T21:21:38.910Z,51.70
2023-03-19T21:26:42.515Z,51.66
2023-03-19T21:31:45.033Z,51.94
2023-03-19T21:36:47.037Z,51.80
2023-03-19T21:41:48.627Z,52.05
2023-03-19T21:46:50.597Z,52.40
2023-03-19T21:51:52.129Z,52.33
2023-03-19T21:56:53.719Z,52.79
2023-03-19T22:01:56.498Z,52.63
2023-03-19T22:06:58.642Z,52.74
2023-03-19T22:12:00.412Z,52.66
2023-03-19T22:17:02.187Z,53.00
2023-03-19T22:22:04.225Z,53.60
2023-03-19T22:27:05.861Z,53.34
2023-03-19T22:32:18.416Z,53.30
2023-03-19T22:37:30.159Z,53.43
2023-03-19T22:42:31.794Z,53.65
2023-03-19T22:47:37.185Z,54.14
2023-03-19T22:52:38.653Z,54.14
2023-03-19T22:57:40.673Z,54.64
2023-03-19T23:02:42.795Z,54.97
2023-03-19T23:07:44.288Z,54.87
2023-03-19T23:12:46.701Z,55.27
2023-03-19T23:17:49.648Z,54.45
2023-03-19T23:22:51.436Z,54.68
2023-03-19T23:27:57.856Z,54.84
2023-03-19T23:33:02.660Z,55.03
2023-03-19T23:38:04.505Z,55.20
2023-03-19T23:43:06.043Z,55.57
2023-03-19T23:48:13.665Z,55.55
2023-03-19T23:53:24.405Z,55.52
2023-03-19T23:58:40.264Z,55.82
